Weather observations for the past three days for
Muncie, Delaware County-Johnson Field
Imperial (Metric)
Date Time (edt) Wind (mph) Vis. (mi.) Weather Sky Cond. Temperature (ºF) Relative Humidity Wind Chill (°F) Heat Index (°F) Pressure Precipitation (in)
Air Dwpt 6 hour altimeter (in) sea level (mb) 1 hr 3 hr 6 hr
Max. Min.
05 09:53 SE 7 10.00 Fair CLR 75.9 66.9 74% 77 29.96 1013.3
05 08:53 S 8 10.00 Mostly Cloudy FEW039 SCT045 BKN055 71.1 66.9 87% 29.97 1013.8
05 07:53 SE 8 10.00 Fair CLR 69.1 66 78.1 68 90% 29.96 1013.5 0.01
05 06:53 SE 8 10.00 Mostly Cloudy BKN045 BKN060 68 66 93% 29.97 1013.8 0.01
05 05:53 E 14 10.00 Light Rain BKN040 BKN050 OVC110 70 66 87% 29.99 1014.3
05 04:53 E 23 G 31 10.00 Mostly Cloudy and Breezy FEW018 BKN070 75 71.1 88% 75 29.97 1013.7
05 03:53 SW 6 10.00 Fair CLR 77 72 85% 78 29.93 1012.2
05 02:53 SW 6 10.00 Fair CLR 77 72 85% 78 29.91 1011.3
05 01:53 Calm 10.00 Fair CLR 75.9 72 82.9 75 88% 76 29.93 1012.3
05 00:53 SW 7 10.00 Fair CLR 78.1 72 82% 80 29.95 1012.7
04 23:53 SW 6 10.00 Fair CLR 79 72 79% 82 29.95 1012.9
04 22:53 SW 5 10.00 Fair CLR 79 73 82% 82 29.96 1013.2
04 21:53 SW 5 10.00 Fair CLR 80.1 75 85% 85 29.95 1012.9
04 20:53 S 5 10.00 Fair CLR 82 73.9 77% 88 29.94 1012.6
04 19:53 Calm 10.00 Fair CLR 82.9 75 93.9 78.1 77% 90 29.94 1012.7 0.16
04 18:53 S 7 10.00 Fair CLR 86 73.9 67% 94 29.95 1012.8
04 17:53 SE 8 10.00 Fair CLR 84.9 75 72% 93 29.95 1013.0
04 16:53 SE 8 10.00 Fair CLR 82 75.9 82% 89 29.93 1012.4 0.16
04 15:53 E 12 10.00 Thunderstorm in Vicinity Light Rain FEW017 SCT026 BKN075 81 77 88% 88 29.98 1014.0 0.16
04 14:53 NW 9 10.00 Partly Cloudy SCT080 93 71.1 49% 100 30 1014.3
04 13:53 NW 10 10.00 Mostly Cloudy SCT050 BKN070 90 73 93.9 77 58% 98 30.01 1014.8
04 12:53 W 9 10.00 Fair CLR 91.9 73 54% 101 30.02 1015.2
04 11:53 W 10 G 16 10.00 Fair CLR 91 73 56% 100 30.02 1015.3
04 10:53 W 12 10.00 Fair CLR 88 73 61% 96 30.02 1015.4
04 09:53 W 9 10.00 Fair CLR 84 72 67% 90 30.01 1015.0
04 08:53 SW 6 10.00 Mostly Cloudy BKN075 79 72 79% 82 30.02 1015.2
04 07:53 SW 6 10.00 Fair CLR 77 71.1 80.1 73.9 82% 79 30 1014.7
04 06:53 SW 7 10.00 Fair CLR 77 71.1 82% 79 29.97 1013.6
04 05:53 SW 6 10.00 Fair CLR 78.1 71.1 79% 80 29.97 1013.5
04 04:53 SW 7 10.00 Fair CLR 78.1 71.1 79% 80 29.96 1013.3
04 03:53 SW 7 10.00 Fair CLR 80.1 72 76% 84 29.98 1013.6
04 02:53 S 5 10.00 Fair CLR 77 72 85% 78 29.99 1014.2
04 01:53 Calm 10.00 Fair CLR 75 71.1 88 73.9 88% 75 30.01 1014.7
04 00:53 Calm 10.00 Fair CLR 75.9 71.1 85% 76 30 1014.7
03 23:53 S 5 10.00 Fair CLR 78.1 71.1 79% 80 30 1014.4
03 22:53 S 3 10.00 A Few Clouds FEW100 78.1 71.1 79% 80 30.01 1014.7
03 21:53 SE 7 10.00 A Few Clouds FEW110 77 71.1 82% 79 30.01 1014.9
03 20:53 N 8 10.00 Fair CLR 80.1 70 71% 83 30 1014.7
03 19:53 W 7 10.00 Partly Cloudy SCT110 87.1 73 95 87.1 63% 95 29.98 1013.7
03 18:53 W 8 10.00 Fair CLR 91 71.1 52% 98 29.96 1013.2
03 17:53 W 12 G 21 10.00 Fair CLR 93 71.1 49% 100 29.95 1012.9
03 16:53 W 13 G 22 10.00 Fair CLR 93.9 69.1 44% 99 29.95 1012.8
03 15:53 W 15 G 21 10.00 Fair CLR 93.9 70 46% 100 29.97 1013.3
03 14:53 W 12 G 18 10.00 A Few Clouds FEW055 93 71.1 49% 100 30 1014.3
03 13:53 W 14 10.00 Fair CLR 93 72 93 77 50% 101 30 1014.6
03 12:53 W 10 10.00 Fair CLR 91 71.1 52% 98 30.02 1015.0
03 11:53 W 13 10.00 Fair CLR 90 72 56% 97 30.03 1015.5
03 10:53 W 9 10.00 Fair CLR 87.1 72 61% 94 30.03 1015.4
03 09:53 SW 9 10.00 Fair CLR 84 72 67% 90 30.03 1015.6
03 08:53 SW 7 10.00 Fair CLR 80.1 72 76% 84 30.04 1015.9
03 07:53 SW 6 10.00 Fair CLR 77 71.1 81 75.9 82% 79 30.04 1015.9
03 06:53 SW 6 10.00 A Few Clouds FEW110 77 71.1 82% 79 30.02 1015.3
03 05:53 SW 6 10.00 Fair CLR 77 71.1 82% 79 30.01 1014.9
03 04:53 SW 8 10.00 Fair CLR 79 71.1 77% 82 30.01 1014.9
03 03:53 SW 7 10.00 Fair CLR 79 72 79% 82 30.01 1014.8
03 02:53 SW 7 10.00 Fair CLR 80.1 72 76% 84 30.01 1014.8
03 01:53 SW 7 10.00 Fair CLR 81 72 88 81 74% 85 30.01 1014.8
03 00:53 SW 8 10.00 Fair CLR 82 73 74% 87 30 1014.3
02 23:53 SW 7 10.00 Fair CLR 82 73 74% 87 30 1014.4
02 22:53 SW 6 10.00 Fair CLR 82.9 73 72% 89 30.01 1014.8
02 21:53 SW 5 10.00 Fair CLR 84 73 70% 90 30.01 1014.9
02 20:53 SW 3 10.00 Fair CLR 84.9 73.9 70% 92 30 1014.4
02 19:53 W 6 10.00 Fair CLR 88 72 93.9 88 59% 95 29.99 1014.2
02 18:53 W 7 10.00 Fair CLR 90 72 56% 97 29.99 1014.1
02 17:53 SW 10 G 21 10.00 Fair CLR 93 70 47% 99 29.99 1014.0
02 16:53 W 10 G 20 10.00 Fair CLR 93.9 70 46% 100 29.99 1014.0
02 15:53 SW 8 10.00 Fair CLR 93.9 72 49% 102 30.01 1014.7
02 14:53 SW 12 10.00 Fair CLR 93 72 50% 101 30.02 1015.2
02 13:53 SW 8 10.00 Fair CLR 93 73 93 77 52% 102 30.04 1015.7
02 12:53 SW 9 10.00 Fair CLR 91.9 71.1 51% 99 30.05 1016.2
02 11:53 W 7 10.00 Fair CLR 90 73 58% 98 30.06 1016.6
02 10:53 W 9 10.00 Fair CLR 87.1 72 61% 94 30.06 1016.5
Date Time (edt) Wind (mph) Vis. (mi.) Weather Sky Cond. Air Dwpt Max. Min. Relative Humidity Wind Chill (°F) Heat Index (°F) altimeter (in) sea level (mb) 1 hr 3 hr 6 hr
6 hour
Temperature (ºF) Pressure Precipitation (in)